Time;durP1;ratioP1;P1;durP2;ratioP2;P2;SDS_P1;SDS_P2;PMS_P1;PMS_P2;Temp;Humidity;BMP_temperature;BMP_pressure;BME280_temperature;BME280_humidity;BME280_pressure;Samples;Min_cycle;Max_cycle;Signal;HPM_P1;HPM_P2
2022/05/21 00:02:03;;;;;;;13.60;7.18;;;;;;;10.16;96.04;101816.78;4981264;28;20038;-85
2022/05/21 00:04:29;;;;;;;15.68;7.50;;;;;;;10.11;96.33;101817.34;4965074;28;20038;-85
2022/05/21 00:06:55;;;;;;;10.67;6.73;;;;;;;10.12;95.90;101823.59;4980644;28;20471;-85
2022/05/21 00:09:24;;;;;;;11.55;6.40;;;;;;;10.10;95.93;101820.25;4997808;28;20101;-85
2022/05/21 00:11:51;;;;;;;11.23;6.05;;;;;;;10.07;96.40;101818.75;4980258;28;20031;-86
2022/05/21 00:14:24;;;;;;;10.07;6.47;;;;;;;10.09;96.19;101823.97;4997923;28;20085;-85
2022/05/21 00:16:50;;;;;;;11.85;6.13;;;;;;;10.07;95.93;101816.03;4980978;28;20058;-85
2022/05/21 00:19:18;;;;;;;11.80;6.07;;;;;;;10.15;95.58;101828.66;4981338;28;20438;-85
2022/05/21 00:21:49;;;;;;;11.00;6.03;;;;;;;10.09;95.73;101827.53;4980279;28;20038;-85
2022/05/21 00:24:17;;;;;;;12.23;6.07;;;;;;;10.15;95.76;101836.78;4980938;28;20466;-87
2022/05/21 00:26:56;;;;;;;12.32;5.85;;;;;;;10.02;96.14;101829.31;4998095;28;20034;-86
2022/05/21 00:29:26;;;;;;;10.45;5.50;;;;;;;10.00;95.80;101824.06;4980273;28;20113;-85
2022/05/21 00:31:54;;;;;;;9.38;4.93;;;;;;;10.03;96.15;101830.16;4979675;28;20101;-86
2022/05/21 00:34:20;;;;;;;11.67;4.90;;;;;;;9.94;96.42;101822.09;4980087;28;20032;-86
2022/05/21 00:36:45;;;;;;;11.60;5.28;;;;;;;9.92;96.62;101836.88;4980361;28;20121;-86
2022/05/21 00:39:11;;;;;;;10.77;5.27;;;;;;;9.92;96.28;101829.59;4980081;28;20441;-85
2022/05/21 00:41:36;;;;;;;10.80;4.85;;;;;;;9.96;96.32;101832.75;4979704;28;20467;-85
2022/05/21 00:44:11;;;;;;;10.00;4.57;;;;;;;9.98;96.00;101834.28;4980033;28;20026;-85
2022/05/21 00:46:40;;;;;;;8.65;4.43;;;;;;;10.07;96.29;101834.16;4980326;28;20034;-85
2022/05/21 00:49:13;;;;;;;11.85;4.35;;;;;;;10.26;95.37;101849.88;4979680;28;20048;-86
2022/05/21 00:52:07;;;;;;;10.93;4.28;;;;;;;10.28;95.14;101849.69;4979832;28;20097;-85
2022/05/21 00:54:43;;;;;;;8.17;3.57;;;;;;;10.37;94.57;101854.00;4979736;28;20049;-85
2022/05/21 00:57:22;;;;;;;7.47;3.80;;;;;;;10.32;94.36;101838.25;4979202;28;20049;-85
2022/05/21 00:59:55;;;;;;;17.65;3.70;;;;;;;10.40;94.16;101842.75;4996966;28;20035;-85
2022/05/21 01:02:33;;;;;;;7.88;3.90;;;;;;;10.41;94.00;101840.88;4980006;28;20421;-85
2022/05/21 01:05:00;;;;;;;6.30;3.30;;;;;;;10.43;93.99;101833.41;4980472;28;20374;-85
2022/05/21 01:07:29;;;;;;;12.60;3.67;;;;;;;10.49;93.74;101838.91;4979584;28;20117;-85
2022/05/21 01:09:58;;;;;;;5.53;3.40;;;;;;;10.49;93.53;101833.47;4964083;28;20490;-86
2022/05/21 01:12:28;;;;;;;9.80;4.05;;;;;;;10.58;93.24;101836.09;4979497;28;20030;-86
2022/05/21 01:15:02;;;;;;;6.15;3.15;;;;;;;10.52;93.46;101834.97;4996585;28;20398;-85
2022/05/21 01:17:27;;;;;;;9.38;3.40;;;;;;;10.56;93.40;101833.56;4979704;28;20482;-85
2022/05/21 01:20:16;;;;;;;12.13;4.17;;;;;;;10.57;93.24;101826.25;4979064;28;20042;-85
2022/05/21 01:22:45;;;;;;;6.47;2.95;;;;;;;10.63;92.93;101833.63;4979424;28;20023;-86
2022/05/21 01:25:16;;;;;;;5.50;3.05;;;;;;;10.68;93.08;101844.75;4996464;28;20470;-85
2022/05/21 01:27:45;;;;;;;10.00;3.30;;;;;;;10.62;92.84;101827.38;4963198;28;20069;-85
2022/05/21 01:30:18;;;;;;;10.02;3.53;;;;;;;10.69;92.87;101836.41;4979142;28;20457;-85
2022/05/21 01:32:47;;;;;;;8.13;3.00;;;;;;;10.68;92.79;101826.59;4978955;28;20050;-85
2022/05/21 01:35:25;;;;;;;11.00;3.67;;;;;;;10.71;92.42;101828.09;4996202;28;20038;-85
2022/05/21 01:37:53;;;;;;;8.98;2.63;;;;;;;10.66;92.42;101815.09;4962978;28;20034;-85
2022/05/21 01:40:21;;;;;;;10.13;3.23;;;;;;;10.75;92.38;101826.69;4996171;28;20038;-85
2022/05/21 01:45:37;;;;;;;8.73;3.00;;;;;;;10.71;92.84;101817.22;4968457;28;20142;-86
2022/05/21 01:48:06;;;;;;;10.03;2.90;;;;;;;10.84;92.53;101835.53;4979137;28;20062;-91
2022/05/21 01:50:32;;;;;;;7.57;2.47;;;;;;;10.79;92.25;101827.97;4979332;28;20467;-87
2022/05/21 01:53:00;;;;;;;7.10;2.53;;;;;;;10.84;92.11;101825.50;4978735;28;20052;-85
2022/05/21 01:55:26;;;;;;;8.98;3.42;;;;;;;10.75;92.14;101813.09;4978636;28;20130;-85
2022/05/21 01:57:54;;;;;;;10.43;3.37;;;;;;;10.83;92.26;101826.53;4978309;28;20117;-87
2022/05/21 02:00:22;;;;;;;8.75;3.13;;;;;;;10.87;92.35;101837.88;4996475;28;20533;-86
2022/05/21 02:02:48;;;;;;;10.85;3.50;;;;;;;10.79;92.36;101810.84;4979133;28;20038;-86
2022/05/21 02:05:19;;;;;;;10.47;3.43;;;;;;;10.80;92.21;101807.91;4995768;28;20092;-85
2022/05/21 02:07:44;;;;;;;9.93;3.42;;;;;;;10.83;92.13;101810.25;4978865;28;20038;-86
2022/05/21 02:10:10;;;;;;;7.20;3.03;;;;;;;10.83;92.22;101817.56;4995937;28;20122;-85
2022/05/21 02:12:36;;;;;;;6.80;2.90;;;;;;;10.86;92.17;101823.44;4978474;28;20031;-85
2022/05/21 02:15:06;;;;;;;11.93;3.57;;;;;;;10.84;92.01;101821.97;4978119;28;20038;-85
2022/05/21 02:17:32;;;;;;;8.10;3.22;;;;;;;10.85;92.08;101823.63;4962825;28;20467;-86
2022/05/21 02:19:57;;;;;;;11.32;3.20;;;;;;;10.86;92.16;101826.16;4977704;28;20064;-85
2022/05/21 02:22:23;;;;;;;11.73;3.33;;;;;;;10.94;92.04;101843.34;4978080;28;20066;-86
2022/05/21 02:24:52;;;;;;;13.05;3.28;;;;;;;10.86;91.89;101830.75;4977869;28;20125;-85
2022/05/21 02:27:17;;;;;;;11.70;2.80;;;;;;;10.86;91.95;101830.75;4978089;28;20026;-85
2022/05/21 02:29:43;;;;;;;9.67;2.83;;;;;;;10.87;92.14;101821.56;4961699;28;20395;-86
2022/05/21 02:32:12;;;;;;;7.23;2.80;;;;;;;10.85;92.29;101831.78;4977694;28;20104;-85
2022/05/21 02:34:41;;;;;;;9.65;3.05;;;;;;;10.84;92.00;101819.25;4977898;28;20142;-85
2022/05/21 02:39:55;;;;;;;10.43;3.30;;;;;;;10.86;92.08;101811.75;4995340;28;20100;-86
2022/05/21 02:45:07;;;;;;;8.23;2.80;;;;;;;10.84;92.16;101811.09;4995413;28;20169;-86
2022/05/21 02:47:36;;;;;;;10.85;3.33;;;;;;;10.84;92.67;101819.25;4977742;28;20037;-85
2022/05/21 02:50:07;;;;;;;12.13;3.60;;;;;;;10.95;92.32;101831.47;4995055;28;20030;-86
2022/05/21 02:52:32;;;;;;;10.63;3.72;;;;;;;10.87;92.45;101827.84;4977918;28;20526;-85
2022/05/21 02:54:58;;;;;;;13.53;3.10;;;;;;;10.90;92.06;101834.75;4977617;28;20026;-85
2022/05/21 02:57:24;;;;;;;8.80;3.10;;;;;;;10.90;92.32;101834.75;4977298;28;20060;-85
2022/05/21 02:59:52;;;;;;;13.77;3.60;;;;;;;10.88;92.21;101824.09;4977459;28;20273;-86
2022/05/21 03:02:19;;;;;;;9.75;3.28;;;;;;;10.88;92.40;101824.09;4978201;28;20081;-85
2022/05/21 03:04:52;;;;;;;13.10;3.25;;;;;;;10.87;92.72;101838.69;4977190;28;20473;-86
2022/05/21 03:07:17;;;;;;;11.80;3.50;;;;;;;10.83;92.71;101821.09;4962360;28;20042;-85
2022/05/21 03:12:27;;;;;;;9.30;3.80;;;;;;;10.91;92.96;101843.72;4994628;28;20065;-85
2022/05/21 03:14:55;;;;;;;13.80;3.87;;;;;;;10.92;92.47;101829.97;4961184;28;20471;-85
2022/05/21 03:17:20;;;;;;;8.95;3.70;;;;;;;10.91;92.55;101835.59;4962217;28;20034;-86
2022/05/21 03:19:49;;;;;;;15.33;4.10;;;;;;;10.85;93.30;101832.63;4976809;28;20402;-86
2022/05/21 03:22:14;;;;;;;12.57;3.95;;;;;;;10.90;92.76;101840.19;4961444;28;20038;-86
2022/05/21 03:24:43;;;;;;;12.53;3.60;;;;;;;10.81;93.05;101823.19;4977212;28;20038;-85
2022/05/21 03:27:09;;;;;;;13.35;4.07;;;;;;;10.80;93.06;101816.06;4977094;28;20042;-85
2022/05/21 03:29:42;;;;;;;15.85;4.40;;;;;;;10.91;93.50;101833.75;4976740;28;20026;-85
2022/05/21 03:32:08;;;;;;;15.40;3.90;;;;;;;10.81;92.90;101822.34;5002910;28;20135;-85
2022/05/21 03:34:36;;;;;;;15.43;4.03;;;;;;;10.82;92.77;101819.44;4996101;28;20106;-85
2022/05/21 03:37:02;;;;;;;15.55;5.03;;;;;;;10.83;93.01;101820.28;5029273;28;20026;-85
2022/05/21 03:39:30;;;;;;;10.30;4.43;;;;;;;10.82;93.05;101829.44;4996681;28;20048;-85
2022/05/21 03:42:05;;;;;;;14.88;4.47;;;;;;;10.87;93.60;101844.13;5014018;28;20061;-86
2022/05/21 03:44:33;;;;;;;15.98;4.32;;;;;;;10.78;93.70;101834.44;4996176;28;20033;-86
2022/05/21 03:47:06;;;;;;;9.13;4.05;;;;;;;10.87;93.46;101844.13;4996375;28;20037;-86
2022/05/21 03:49:36;;;;;;;14.00;4.00;;;;;;;10.83;93.63;101836.56;4981709;28;20088;-85
2022/05/21 03:52:06;;;;;;;9.03;3.97;;;;;;;10.80;93.24;101840.50;4980370;28;20470;-85
2022/05/21 03:54:32;;;;;;;10.65;4.47;;;;;;;10.83;93.07;101829.25;5013810;28;20089;-85
2022/05/21 03:57:01;;;;;;;17.40;4.47;;;;;;;10.84;93.62;101828.22;4995962;28;20037;-85
2022/05/21 03:59:26;;;;;;;14.40;4.32;;;;;;;10.86;93.47;101847.03;4996428;28;20033;-86
2022/05/21 04:01:54;;;;;;;14.43;3.93;;;;;;;10.90;93.12;101851.06;5013557;28;20030;-85
2022/05/21 04:04:19;;;;;;;18.40;4.10;;;;;;;10.83;93.40;101840.09;4996122;28;20044;-86
2022/05/21 04:06:45;;;;;;;10.93;4.00;;;;;;;10.90;93.54;101845.63;4996106;28;20034;-85
2022/05/21 04:09:12;;;;;;;15.02;4.65;;;;;;;10.85;93.61;101846.22;5013464;28;20037;-85
2022/05/21 04:11:40;;;;;;;14.87;5.27;;;;;;;10.87;93.67;101854.16;4979629;28;20042;-85
2022/05/21 04:14:07;;;;;;;12.30;4.13;;;;;;;10.86;93.66;101853.28;5013247;28;20477;-86
2022/05/21 04:16:35;;;;;;;17.70;4.45;;;;;;;10.89;93.49;101852.06;4995776;28;20056;-86
2022/05/21 04:19:08;;;;;;;11.05;4.32;;;;;;;10.96;93.58;101861.13;5013347;28;20113;-86
2022/05/21 04:21:44;;;;;;;13.60;4.35;;;;;;;10.98;93.68;101867.19;4980417;28;20030;-85
2022/05/21 04:24:11;;;;;;;15.57;3.90;;;;;;;10.95;93.30;101861.31;4981411;28;20045;-86
2022/05/21 04:26:42;;;;;;;15.73;4.68;;;;;;;10.94;93.53;101870.50;4996365;28;20033;-86
2022/05/21 04:29:11;;;;;;;16.73;4.32;;;;;;;10.91;93.28;101871.75;4996210;28;20037;-86
2022/05/21 04:31:37;;;;;;;13.52;4.35;;;;;;;10.90;93.47;101861.91;4991028;28;20426;-85
2022/05/21 04:34:08;;;;;;;14.90;4.70;;;;;;;10.94;92.97;101865.94;4976570;28;20027;-85
2022/05/21 04:36:41;;;;;;;19.63;4.77;;;;;;;10.95;93.47;101862.16;4994498;28;20042;-85
2022/05/21 04:39:09;;;;;;;19.63;4.88;;;;;;;11.04;93.50;101865.59;4993848;28;20030;-85
2022/05/21 04:41:35;;;;;;;15.15;5.35;;;;;;;11.06;93.48;101879.84;4976809;28;20033;-86
2022/05/21 04:44:06;;;;;;;14.75;4.72;;;;;;;11.00;92.78;101870.59;4979990;28;20056;-85
2022/05/21 04:46:39;;;;;;;17.57;5.57;;;;;;;11.05;93.62;101886.28;4997756;28;20371;-85
2022/05/21 04:49:07;;;;;;;16.88;5.35;;;;;;;11.09;93.38;101890.31;4997197;28;20125;-85
2022/05/21 04:51:36;;;;;;;17.92;5.68;;;;;;;11.03;93.11;101863.94;4997627;28;20037;-86
2022/05/21 04:54:05;;;;;;;18.45;6.00;;;;;;;11.14;93.03;101876.97;4979399;28;20026;-85
2022/05/21 04:56:41;;;;;;;;;;;;;;;;;;;;;
2022/05/21 04:59:13;;;;;;;18.30;5.90;;;;;;;11.21;93.02;101890.63;4997775;28;20374;-86
2022/05/21 05:01:41;;;;;;;24.48;7.07;;;;;;;11.18;92.68;101882.88;4963563;28;20088;-85
2022/05/21 05:04:07;;;;;;;23.17;7.18;;;;;;;11.14;92.92;101881.56;4963495;28;20030;-85
2022/05/21 05:06:33;;;;;;;16.10;6.40;;;;;;;11.17;92.88;101882.03;4979562;28;20034;-85
2022/05/21 05:09:06;;;;;;;22.17;6.95;;;;;;;11.26;nan;101879.19;4979266;28;20125;-85
2022/05/21 05:11:31;;;;;;;19.53;7.57;;;;;;;11.32;92.42;101883.84;4979448;28;20065;-86
2022/05/21 05:14:00;;;;;;;22.23;7.47;;;;;;;11.36;92.25;101887.84;4980188;28;20050;-86
2022/05/21 05:16:25;;;;;;;22.45;8.55;;;;;;;11.41;91.97;101890.81;4962889;28;20034;-85
2022/05/21 05:18:54;;;;;;;17.92;7.63;;;;;;;11.44;91.98;101892.28;4979431;28;20073;-85
2022/05/21 05:21:19;;;;;;;18.95;7.35;;;;;;;11.54;91.59;101915.38;4996845;28;20029;-85
2022/05/21 05:31:17;;;;;;;19.57;7.70;;;;;;;11.58;91.24;101907.69;4946485;28;20063;-92
2022/05/21 05:34:18;;;;;;;;;;;;;;;;;;;;;
2022/05/21 05:43:54;;;;;;;22.23;8.32;;;;;;;12.10;89.98;101928.19;4917786;28;20115;-91
2022/05/21 05:46:38;;;;;;;23.27;7.30;;;;;;;12.11;89.15;101943.47;4917439;29;20028;-88
2022/05/21 05:49:26;;;;;;;23.63;7.90;;;;;;;12.05;89.23;101914.34;4902595;29;20433;-90
2022/05/21 05:51:54;;;;;;;27.42;8.40;;;;;;;12.13;88.91;101916.06;4989066;28;20037;-87
2022/05/21 05:57:43;;;;;;;20.58;8.45;;;;;;;12.05;89.09;101911.63;5015236;28;20065;-88
2022/05/21 06:00:22;;;;;;;20.97;8.83;;;;;;;12.14;88.50;101925.09;4989255;28;20470;-88
2022/05/21 06:03:04;;;;;;;21.75;9.18;;;;;;;12.30;87.92;101930.19;4983738;28;20038;-88
2022/05/21 06:05:55;;;;;;;24.00;10.25;;;;;;;12.31;88.30;101923.69;5015438;28;20117;-88
2022/05/21 06:08:31;;;;;;;24.55;9.60;;;;;;;12.35;87.50;101924.97;4985662;28;20084;-87
2022/05/21 06:14:11;;;;;;;;;;;;;;;;;;;;;
2022/05/21 06:16:52;;;;;;;17.17;9.57;;;;;;;12.62;86.82;101938.72;5015943;28;20480;-88
2022/05/21 06:19:30;;;;;;;28.05;10.00;;;;;;;12.52;87.07;101930.94;4984204;28;20122;-88
2022/05/21 06:22:02;;;;;;;23.67;9.85;;;;;;;12.49;86.39;101934.06;4982121;28;20042;-88
2022/05/21 06:24:43;;;;;;;25.70;9.85;;;;;;;12.49;87.14;101928.63;4981900;28;20044;-88
2022/05/21 06:27:25;;;;;;;30.17;10.70;;;;;;;12.58;86.92;101948.38;4997680;28;20046;-89
2022/05/21 06:29:53;;;;;;;25.83;9.63;;;;;;;12.50;87.25;101948.53;4967426;28;20076;-88
2022/05/21 06:32:23;;;;;;;18.27;9.85;;;;;;;12.44;88.03;101933.81;4997181;28;20054;-88
2022/05/21 06:34:51;;;;;;;26.13;10.73;;;;;;;12.46;87.69;101950.81;4998158;28;20037;-88
2022/05/21 06:37:24;;;;;;;27.20;10.77;;;;;;;12.49;87.67;101936.81;4997329;28;20380;-89
2022/05/21 06:39:50;;;;;;;24.20;10.37;;;;;;;12.59;86.99;101945.44;4980707;28;20050;-89
2022/05/21 06:42:15;;;;;;;26.67;11.48;;;;;;;12.74;87.24;101956.19;4997256;28;20026;-88
2022/05/21 06:44:51;;;;;;;26.97;11.40;;;;;;;12.84;85.51;101939.44;4982040;28;20041;-89
2022/05/21 06:47:30;;;;;;;;;;;;;;;;;;;;;
2022/05/21 06:50:16;;;;;;;31.10;11.95;;;;;;;13.40;83.59;101945.72;5014946;28;20026;-90
2022/05/21 06:52:46;;;;;;;29.67;10.68;;;;;;;13.56;81.92;101958.94;4996308;28;20038;-88
2022/05/21 06:55:15;;;;;;;26.03;9.70;;;;;;;13.71;81.48;101952.44;4997363;28;20036;-88
2022/05/21 06:57:41;;;;;;;24.48;10.05;;;;;;;13.81;79.62;101958.31;4996641;28;20033;-89
2022/05/21 07:00:10;;;;;;;27.83;10.57;;;;;;;13.71;80.36;101947.81;4996939;28;20485;-89
2022/05/21 07:03:19;;;;;;;23.38;10.60;;;;;;;13.65;80.19;101965.84;4996849;28;20022;-87
2022/05/21 07:08:57;;;;;;;25.00;10.57;;;;;;;13.79;80.12;101977.63;5014964;28;20048;-89
2022/05/21 07:11:42;;;;;;;;;;;;;;;;;;;;;
2022/05/21 07:14:20;;;;;;;26.97;10.93;;;;;;;13.81;80.22;101974.69;5015133;28;20029;-90
2022/05/21 07:16:48;;;;;;;23.30;10.88;;;;;;;13.80;79.91;101971.13;4997252;28;20037;-87
2022/05/21 07:19:23;;;;;;;27.60;10.77;;;;;;;13.88;80.05;101975.53;4996313;28;20026;-89
2022/05/21 07:22:00;;;;;;;21.58;10.18;;;;;;;13.92;78.64;101987.72;4980761;28;20049;-89
2022/05/21 07:24:40;;;;;;;25.63;10.95;;;;;;;14.00;79.44;101990.22;4981839;28;20462;-87
2022/05/21 07:27:39;;;;;;;;;;;;;;;;;;;;;
2022/05/21 07:29:54;;;;;;;33.03;11.85;;;;;;;14.12;77.99;101986.84;5007424;28;20033;-87
2022/05/21 07:35:19;;;;;;;27.37;10.80;;;;;;;14.37;77.61;101992.50;5013612;28;20034;-89
2022/05/21 07:38:13;;;;;;;29.35;11.95;;;;;;;14.46;76.93;101993.09;4980705;28;20037;-89
2022/05/21 07:40:45;;;;;;;20.80;10.70;;;;;;;14.51;76.89;101990.56;4979780;28;20042;-88
2022/05/21 07:43:10;;;;;;;23.60;10.40;;;;;;;14.57;76.19;102001.47;4996173;28;20064;-89
2022/05/21 07:45:54;;;;;;;28.93;11.33;;;;;;;14.35;76.50;101997.31;4996488;28;20069;-89
2022/05/21 07:48:22;;;;;;;21.58;10.52;;;;;;;14.35;77.54;101983.66;4996378;28;20037;-89
2022/05/21 07:50:58;;;;;;;27.55;11.48;;;;;;;14.48;76.64;102010.09;4996029;28;20030;-88
2022/05/21 07:54:03;;;;;;;34.38;12.25;;;;;;;14.65;76.42;102016.00;4981223;28;20034;-88
2022/05/21 07:56:30;;;;;;;25.02;10.02;;;;;;;14.98;74.26;101995.91;4983086;28;20130;-84
2022/05/21 07:58:58;;;;;;;27.10;10.73;;;;;;;15.00;75.07;102002.84;4996653;28;20034;-83
2022/05/21 08:01:24;;;;;;;19.20;9.00;;;;;;;15.26;73.56;101993.69;4996719;28;20138;-83
2022/05/21 08:03:50;;;;;;;22.40;9.33;;;;;;;15.51;71.98;102005.72;5013728;28;20030;-86
2022/05/21 08:06:16;;;;;;;28.07;9.17;;;;;;;15.57;70.66;102002.94;4979919;28;20323;-85
2022/05/21 08:08:41;;;;;;;24.08;8.52;;;;;;;15.48;70.66;101998.78;4996264;28;20030;-85
2022/05/21 08:11:07;;;;;;;21.90;8.60;;;;;;;15.54;70.31;102011.56;4995916;28;20458;-86
2022/05/21 08:13:34;;;;;;;16.90;7.80;;;;;;;15.26;70.01;102015.56;4996004;28;20034;-85
2022/05/21 08:16:00;;;;;;;19.50;9.35;;;;;;;15.07;71.89;102014.59;4995785;28;20509;-86
2022/05/21 08:18:27;;;;;;;20.60;9.50;;;;;;;14.94;71.97;102011.91;4999157;28;20037;-85
2022/05/21 08:20:55;;;;;;;23.05;9.35;;;;;;;14.89;72.37;102006.25;5017712;28;20061;-85
2022/05/21 08:28:52;;;;;;;22.25;10.18;;;;;;;15.05;72.04;102022.16;5017363;28;20045;-86
2022/05/21 08:31:21;;;;;;;26.80;9.60;;;;;;;15.24;71.15;102006.72;5016661;28;20393;-86
2022/05/21 08:33:46;;;;;;;22.80;10.55;;;;;;;15.40;70.43;102013.56;4999079;28;20038;-85
2022/05/21 08:36:12;;;;;;;28.30;10.47;;;;;;;15.63;69.54;102014.88;5016908;28;20030;-85
2022/05/21 08:38:41;;;;;;;24.77;9.68;;;;;;;15.86;68.65;102011.59;4999159;28;20088;-85
2022/05/21 08:41:11;;;;;;;25.33;9.30;;;;;;;15.86;67.23;102030.75;4999329;28;20061;-85
2022/05/21 08:43:58;;;;;;;21.02;9.35;;;;;;;15.89;68.48;102029.50;5017447;28;20080;-85
2022/05/21 08:46:26;;;;;;;23.90;9.75;;;;;;;15.95;68.76;102037.63;5000053;28;20505;-86
2022/05/21 08:49:18;;;;;;;23.73;10.15;;;;;;;15.96;67.80;102011.13;5016673;28;20381;-86
2022/05/21 08:52:06;;;;;;;;;;;;;;;;;;;;;
2022/05/21 08:54:41;;;;;;;25.63;10.10;;;;;;;15.94;67.45;102040.59;5017223;28;20034;-85
2022/05/21 08:57:16;;;;;;;25.27;9.55;;;;;;;15.79;67.25;102005.34;4999178;28;20080;-85
2022/05/21 08:59:53;;;;;;;22.27;9.80;;;;;;;15.72;67.68;102012.72;4999025;28;20569;-85
2022/05/21 09:02:26;;;;;;;23.58;9.90;;;;;;;15.75;67.83;102020.50;4999389;28;20038;-86
2022/05/21 09:04:51;;;;;;;21.27;8.23;;;;;;;16.03;66.38;102013.78;5016433;28;20084;-85
2022/05/21 09:07:25;;;;;;;23.13;8.50;;;;;;;16.04;66.07;101994.41;5016604;28;20045;-85
2022/05/21 09:09:51;;;;;;;20.52;8.20;;;;;;;16.23;66.09;102011.72;4998662;28;20037;-85
2022/05/21 09:12:50;;;;;;;19.27;8.53;;;;;;;16.27;65.44;102015.69;4998873;28;20034;-86
2022/05/21 09:18:09;;;;;;;20.25;8.75;;;;;;;16.34;64.13;102006.56;4975705;28;20033;-85
2022/05/21 09:20:57;;;;;;;21.95;8.20;;;;;;;16.42;64.90;102000.81;4998598;28;20092;-85
2022/05/21 09:23:22;;;;;;;16.02;7.63;;;;;;;16.70;64.25;101997.53;4998717;28;20450;-85
2022/05/21 09:26:05;;;;;;;15.73;6.57;;;;;;;16.83;61.91;101997.38;4982733;28;20128;-85
2022/05/21 09:28:39;;;;;;;17.85;6.20;;;;;;;16.90;60.76;101997.31;4997555;28;20044;-85
2022/05/21 09:31:06;;;;;;;18.73;6.10;;;;;;;17.03;59.59;101979.88;4998957;28;20091;-85
2022/05/21 09:33:38;;;;;;;13.37;5.97;;;;;;;16.90;61.07;101986.34;5015758;28;20088;-85
2022/05/21 09:36:05;;;;;;;17.67;6.43;;;;;;;16.89;62.08;101997.53;5016078;28;20145;-85
2022/05/21 09:38:52;;;;;;;14.85;5.43;;;;;;;17.21;61.01;102003.66;5015913;28;20065;-85
2022/05/21 09:41:32;;;;;;;14.88;5.43;;;;;;;17.28;59.02;102003.59;5015706;28;20034;-85
2022/05/21 09:47:09;;;;;;;17.10;5.60;;;;;;;16.55;63.00;102002.53;5016422;28;20053;-85
2022/05/21 09:49:39;;;;;;;18.65;5.40;;;;;;;16.22;64.13;101990.84;4998013;28;20124;-85
2022/05/21 09:52:10;;;;;;;18.98;5.70;;;;;;;16.28;64.46;102011.88;5016248;28;20040;-85
2022/05/21 09:54:44;;;;;;;13.32;4.97;;;;;;;16.64;63.16;102006.66;5016296;28;20026;-85
2022/05/21 09:57:28;;;;;;;13.90;5.60;;;;;;;17.35;60.86;102016.13;4997487;28;20030;-85
2022/05/21 10:00:28;;;;;;;15.33;5.13;;;;;;;17.75;59.57;102017.44;5015854;28;20096;-85
2022/05/21 10:02:57;;;;;;;13.05;4.90;;;;;;;18.01;58.39;102004.38;4997803;28;20022;-85
2022/05/21 10:05:52;;;;;;;19.13;5.97;;;;;;;18.12;58.35;102002.75;4997601;28;20022;-85
2022/05/21 10:11:48;;;;;;;17.85;6.70;;;;;;;18.04;58.69;102018.50;5016134;28;20104;-90
2022/05/21 10:14:32;;;;;;;19.03;7.10;;;;;;;17.91;57.91;102015.13;4997974;28;20033;-87
2022/05/21 10:17:10;;;;;;;16.30;7.18;;;;;;;18.10;57.05;102018.59;4997789;28;20032;-87
2022/05/21 10:23:09;;;;;;;17.13;7.72;;;;;;;17.75;58.55;102014.72;5004627;28;20044;-86
2022/05/21 10:26:01;;;;;;;19.13;8.50;;;;;;;17.69;59.17;102035.69;4997100;28;20092;-86
2022/05/21 10:28:41;;;;;;;19.17;8.97;;;;;;;17.44;60.27;102011.16;4960846;28;20084;-86
2022/05/21 10:31:25;;;;;;;19.00;8.00;;;;;;;17.79;59.29;102009.56;5013926;28;20450;-86
2022/05/21 10:34:16;;;;;;;20.60;8.68;;;;;;;18.44;58.54;102027.94;4977871;28;20483;-86
2022/05/21 10:37:01;;;;;;;22.63;7.60;;;;;;;18.79;56.37;102023.47;4978630;28;20046;-87
2022/05/21 10:39:34;;;;;;;18.25;7.10;;;;;;;18.98;55.79;102026.94;4978079;28;20117;-87
2022/05/21 10:42:25;;;;;;;15.90;5.50;;;;;;;19.15;53.52;102025.09;4977732;28;20471;-89
2022/05/21 10:45:27;;;;;;;16.48;5.40;;;;;;;19.43;54.18;102016.00;4977726;28;20026;-86
2022/05/21 10:48:24;;;;;;;14.50;5.80;;;;;;;19.72;52.97;102013.19;4977872;28;20471;-85
2022/05/21 10:54:41;;;;;;;14.15;6.40;;;;;;;18.86;55.49;102014.03;4980707;28;20096;-87
2022/05/21 10:57:46;;;;;;;11.97;4.33;;;;;;;19.60;52.62;102040.78;4976995;28;20101;-86
2022/05/21 11:00:57;;;;;;;11.00;4.50;;;;;;;20.04;51.20;102014.59;4977325;28;20022;-86
2022/05/21 11:03:47;;;;;;;16.92;4.78;;;;;;;19.36;51.76;102012.56;4961162;28;20041;-85
2022/05/21 11:06:15;;;;;;;11.70;4.25;;;;;;;19.39;50.13;102006.56;4977728;28;20166;-85
2022/05/21 11:09:13;;;;;;;9.45;3.70;;;;;;;20.34;51.13;102036.25;4994405;28;20057;-85
2022/05/21 11:11:47;;;;;;;14.07;4.80;;;;;;;20.37;48.13;102032.16;4961278;28;20076;-85
2022/05/21 11:14:18;;;;;;;15.13;4.40;;;;;;;20.16;49.71;102034.59;4977719;28;20026;-85
2022/05/21 11:16:56;;;;;;;13.38;4.78;;;;;;;20.55;49.62;102031.03;4994972;28;20054;-85
2022/05/21 11:19:46;;;;;;;13.60;4.40;;;;;;;21.81;46.10;102020.16;4977854;28;20410;-85
2022/05/21 11:22:40;;;;;;;10.32;4.15;;;;;;;23.65;43.11;102022.16;4977452;28;20478;-85
2022/05/21 11:25:17;;;;;;;9.80;3.33;;;;;;;25.72;39.53;102004.63;4965225;28;20149;-85
2022/05/21 11:27:59;;;;;;;11.48;3.22;;;;;;;27.42;33.59;101999.09;4994169;28;20390;-85
2022/05/21 11:30:25;;;;;;;11.77;3.03;;;;;;;25.19;35.22;102012.75;4977028;28;20125;-85
2022/05/21 11:38:46;;;;;;;12.50;3.97;;;;;;;25.12;37.15;102026.09;4994488;28;20108;-85
2022/05/21 11:41:29;;;;;;;9.95;3.42;;;;;;;26.08;35.77;102009.06;4976787;28;20034;-85
2022/05/21 11:47:33;;;;;;;12.35;3.33;;;;;;;28.53;32.32;102028.13;4994276;28;20093;-85
2022/05/21 11:50:02;;;;;;;9.85;3.90;;;;;;;27.41;31.75;102008.59;4974270;28;20137;-85
2022/05/21 11:52:27;;;;;;;12.00;3.83;;;;;;;26.01;34.55;102005.78;4975827;28;20084;-85
2022/05/21 11:55:09;;;;;;;11.17;4.27;;;;;;;27.48;32.68;101995.94;4994034;28;20062;-85
2022/05/21 11:57:52;;;;;;;10.57;3.90;;;;;;;27.57;33.35;102009.19;4977167;28;20117;-85
2022/05/21 12:00:18;;;;;;;10.55;4.80;;;;;;;27.77;31.65;101999.63;4976664;28;20034;-85
2022/05/21 12:03:04;;;;;;;13.47;4.67;;;;;;;28.17;32.00;101995.34;4977034;28;20023;-86
2022/05/21 12:05:37;;;;;;;7.25;3.97;;;;;;;28.88;30.37;101994.22;4994391;28;20026;-84
2022/05/21 12:08:21;;;;;;;9.98;4.20;;;;;;;29.88;29.28;102006.44;4994305;28;20037;-84
2022/05/21 12:11:04;;;;;;;9.23;3.70;;;;;;;29.76;28.77;101987.41;4976277;28;20034;-84
2022/05/21 12:14:00;;;;;;;11.47;3.40;;;;;;;29.14;29.90;101986.06;4993868;28;20511;-84
2022/05/21 12:16:26;;;;;;;7.07;3.85;;;;;;;29.70;27.81;101983.09;4976785;28;20033;-84
2022/05/21 12:18:57;;;;;;;9.20;4.30;;;;;;;29.29;27.95;101998.94;4976665;28;20129;-83
2022/05/21 12:21:30;;;;;;;8.13;3.38;;;;;;;27.27;31.31;101992.59;4976805;28;20532;-84
2022/05/21 12:24:05;;;;;;;8.88;3.55;;;;;;;25.45;33.06;102009.81;4976133;28;20077;-85
2022/05/21 12:26:43;;;;;;;8.87;3.80;;;;;;;25.41;34.89;101979.03;4993745;28;20027;-84
2022/05/21 12:29:22;;;;;;;6.10;2.97;;;;;;;24.96;35.00;101986.47;4976382;28;20034;-84
2022/05/21 12:31:53;;;;;;;7.28;2.90;;;;;;;25.14;33.45;101969.19;4997835;28;20061;-84
2022/05/21 12:34:37;;;;;;;7.00;3.20;;;;;;;26.55;32.73;101987.97;4996108;28;20046;-84
2022/05/21 12:37:12;;;;;;;7.72;3.15;;;;;;;26.70;33.49;101986.97;4996055;28;20037;-84
2022/05/21 12:40:09;;;;;;;8.50;2.97;;;;;;;28.64;30.87;101980.47;4995995;28;20044;-84
2022/05/21 12:42:40;;;;;;;7.32;3.05;;;;;;;30.67;27.16;101965.66;4996164;28;20037;-84
2022/05/21 12:45:12;;;;;;;10.50;3.22;;;;;;;31.95;25.29;101983.13;4995544;28;20036;-84
2022/05/21 12:47:44;;;;;;;8.43;2.85;;;;;;;33.50;23.51;101986.56;5013411;28;20026;-84
2022/05/21 12:50:19;;;;;;;8.20;3.08;;;;;;;33.50;22.28;101982.91;4995975;28;20026;-84
2022/05/21 12:52:55;;;;;;;6.57;2.80;;;;;;;31.79;24.51;101973.63;5012945;28;20026;-85
2022/05/21 12:55:26;;;;;;;13.48;3.42;;;;;;;29.76;26.19;101967.84;4979038;28;20040;-84
2022/05/21 12:58:08;;;;;;;9.02;3.60;;;;;;;27.22;29.62;101964.81;4995614;28;20034;-84
2022/05/21 13:00:35;;;;;;;7.88;2.75;;;;;;;25.31;32.24;101971.56;5013285;28;20037;-84
2022/05/21 13:03:10;;;;;;;10.80;3.75;;;;;;;24.09;34.54;101970.94;4996740;28;20033;-84
2022/05/21 13:05:46;;;;;;;8.37;2.37;;;;;;;23.40;36.20;101964.81;5016276;28;20026;-84